Lavaca Bay — WDF2105 — position and weather

sailwx.info

Track history (hours):
 
Tides and Currents Weather Stations Pressure Air Temp Water Temp Dewpoint Dewpoint Depression Visibility Wind Speed Wind Dir Waves Ship Positions

Lavaca Bay

Owner: Higman Barge Lines, Inc, Orange, TX. More information available from US FCC via Universal Licensing System and Coast Guard Vessel Documentation Center.

Last reported at 2017-Feb-25 04:34 UTC. Time now 2017-Feb-25 16:04 UTC.
Position N 30°03' W 093°43'.

Length 24 m; draft 3 m.

Type: Towing. MMSI: 367424940.

Date/timePositionNaut miles runAvg speedWind from/ knotsBaromVisibWave heightAir tempDewpointWater temp
2017-Feb-25 04:34N 30°03' W 093°43'2 0.3
2017-Feb-24 20:18N 30°05' W 093°44'0 0.0
2017-Feb-24 17:14N 30°05' W 093°44'  
2017-Feb-20 14:27N 30°04' W 093°42'8 8.6
2017-Feb-20 13:33N 30°04' W 093°33'8 8.2
2017-Feb-20 12:33N 30°04' W 093°23'5 5.0
2017-Feb-20 11:33N 30°05' W 093°18'2 2.0
2017-Feb-20 10:33N 30°04' W 093°16'0 0.0
2017-Feb-20 09:33N 30°04' W 093°16'0 0.0
2017-Feb-20 08:33N 30°04' W 093°16'0 0.0
2017-Feb-20 07:33N 30°04' W 093°16'0 0.0
2017-Feb-20 06:33N 30°04' W 093°16'0 0.0
2017-Feb-20 05:33N 30°04' W 093°16'3 2.7
2017-Feb-20 04:33N 30°02' W 093°15'6 5.7
2017-Feb-20 03:33N 29°57' W 093°11'6 5.8
2017-Feb-20 02:33N 29°56' W 093°04'6 5.5
2017-Feb-20 01:26N 29°56' W 092°57'23 5.2
2017-Feb-19 21:04N 29°54' W 092°31'3 6.4
2017-Feb-19 20:33N 29°54' W 092°27'5 5.5
2017-Feb-19 19:33N 29°51' W 092°21'2 2.4
2017-Feb-19 18:33N 29°50' W 092°19'5 4.8
2017-Feb-19 17:33N 29°48' W 092°14'3 3.5
2017-Feb-19 16:33N 29°46' W 092°10'0 0.0
2017-Feb-19 15:33N 29°46' W 092°10'0 0.0
2017-Feb-19 14:33N 29°46' W 092°10'0 0.0
2017-Feb-19 13:33N 29°46' W 092°10'0 0.0
2017-Feb-19 12:33N 29°46' W 092°10'0 0.0
2017-Feb-19 11:31N 29°46' W 092°10'0 0.0
2017-Feb-19 10:33N 29°46' W 092°10'0 0.0
2017-Feb-19 09:33N 29°46' W 092°10'0 0.0
2017-Feb-19 08:33N 29°46' W 092°10'0 0.0
2017-Feb-19 07:33N 29°46' W 092°10'0 0.0
2017-Feb-19 06:33N 29°46' W 092°10'0 0.0
2017-Feb-19 05:33N 29°46' W 092°10'0 0.0
2017-Feb-19 04:33N 29°46' W 092°10'0 0.0
2017-Feb-19 03:33N 29°46' W 092°10'0 0.0
2017-Feb-19 02:33N 29°47' W 092°10'0 0.0
2017-Feb-19 01:33N 29°46' W 092°10'0 0.0
2017-Feb-19 00:33N 29°46' W 092°10'0 0.0
2017-Feb-18 23:33N 29°47' W 092°10'2 1.6
2017-Feb-18 22:33N 29°47' W 092°09'6 5.8
2017-Feb-18 21:33N 29°49' W 092°02'6 5.5
2017-Feb-18 20:33N 29°51' W 091°56'6 5.2
2017-Feb-18 19:20N 29°49' W 091°49'135 2.9
2017-Feb-16 20:07N 31°59' W 091°07'7 7.8
2017-Feb-16 19:17N 32°05' W 091°05'3 4.8
2017-Feb-16 18:33N 32°07' W 091°02'9 9.3
2017-Feb-16 17:33N 32°16' W 090°58'5 5.0
2017-Feb-16 16:33N 32°21' W 090°59'8 8.0
2017-Feb-16 15:33N 32°27' W 091°05'9 8.9
2017-Feb-16 14:33N 32°35' W 091°08'13 6.5
2017-Feb-16 12:29N 32°49' W 091°09'  
Track history (hours):
 
Tides and Currents Weather Stations Pressure Air Temp Water Temp Dewpoint Dewpoint Depression Visibility Wind Speed Wind Dir Waves Ship Positions

Lavaca Bay

Owner: Higman Barge Lines, Inc, Orange, TX. More information available from US FCC via Universal Licensing System and Coast Guard Vessel Documentation Center.

Last reported at 2017-Feb-25 04:34 UTC. Time now 2017-Feb-25 16:04 UTC.
Position N 30°03' W 093°43'.

Length 24 m; draft 3 m.

Type: Towing. MMSI: 367424940.

Date/timePositionNaut miles runAvg speedWind from/ knotsBaromVisibWave heightAir tempDewpointWater temp
2017-Feb-25 04:34N 30°03' W 093°43'2 0.3
2017-Feb-24 20:18N 30°05' W 093°44'0 0.0
2017-Feb-24 17:14N 30°05' W 093°44'  
2017-Feb-20 14:27N 30°04' W 093°42'8 8.6
2017-Feb-20 13:33N 30°04' W 093°33'8 8.2
2017-Feb-20 12:33N 30°04' W 093°23'5 5.0
2017-Feb-20 11:33N 30°05' W 093°18'2 2.0
2017-Feb-20 10:33N 30°04' W 093°16'0 0.0
2017-Feb-20 09:33N 30°04' W 093°16'0 0.0
2017-Feb-20 08:33N 30°04' W 093°16'0 0.0
2017-Feb-20 07:33N 30°04' W 093°16'0 0.0
2017-Feb-20 06:33N 30°04' W 093°16'0 0.0
2017-Feb-20 05:33N 30°04' W 093°16'3 2.7
2017-Feb-20 04:33N 30°02' W 093°15'6 5.7
2017-Feb-20 03:33N 29°57' W 093°11'6 5.8
2017-Feb-20 02:33N 29°56' W 093°04'6 5.5
2017-Feb-20 01:26N 29°56' W 092°57'23 5.2
2017-Feb-19 21:04N 29°54' W 092°31'3 6.4
2017-Feb-19 20:33N 29°54' W 092°27'5 5.5
2017-Feb-19 19:33N 29°51' W 092°21'2 2.4
2017-Feb-19 18:33N 29°50' W 092°19'5 4.8
2017-Feb-19 17:33N 29°48' W 092°14'3 3.5
2017-Feb-19 16:33N 29°46' W 092°10'0 0.0
2017-Feb-19 15:33N 29°46' W 092°10'0 0.0
2017-Feb-19 14:33N 29°46' W 092°10'0 0.0
2017-Feb-19 13:33N 29°46' W 092°10'0 0.0
2017-Feb-19 12:33N 29°46' W 092°10'0 0.0
2017-Feb-19 11:31N 29°46' W 092°10'0 0.0
2017-Feb-19 10:33N 29°46' W 092°10'0 0.0
2017-Feb-19 09:33N 29°46' W 092°10'0 0.0
2017-Feb-19 08:33N 29°46' W 092°10'0 0.0
2017-Feb-19 07:33N 29°46' W 092°10'0 0.0
2017-Feb-19 06:33N 29°46' W 092°10'0 0.0
2017-Feb-19 05:33N 29°46' W 092°10'0 0.0
2017-Feb-19 04:33N 29°46' W 092°10'0 0.0
2017-Feb-19 03:33N 29°46' W 092°10'0 0.0
2017-Feb-19 02:33N 29°47' W 092°10'0 0.0
2017-Feb-19 01:33N 29°46' W 092°10'0 0.0
2017-Feb-19 00:33N 29°46' W 092°10'0 0.0
2017-Feb-18 23:33N 29°47' W 092°10'2 1.6
2017-Feb-18 22:33N 29°47' W 092°09'6 5.8
2017-Feb-18 21:33N 29°49' W 092°02'6 5.5
2017-Feb-18 20:33N 29°51' W 091°56'6 5.2
2017-Feb-18 19:20N 29°49' W 091°49'135 2.9
2017-Feb-16 20:07N 31°59' W 091°07'7 7.8
2017-Feb-16 19:17N 32°05' W 091°05'3 4.8
2017-Feb-16 18:33N 32°07' W 091°02'9 9.3
2017-Feb-16 17:33N 32°16' W 090°58'5 5.0
2017-Feb-16 16:33N 32°21' W 090°59'8 8.0
2017-Feb-16 15:33N 32°27' W 091°05'9 8.9
2017-Feb-16 14:33N 32°35' W 091°08'13 6.5
2017-Feb-16 12:29N 32°49' W 091°09'  

Dump ship's entire track history